createdAt,value
2019-03-19T00:00:22.761Z,100.00
2019-03-19T00:02:52.247Z,100.00
2019-03-19T00:05:21.831Z,100.00
2019-03-19T00:07:51.346Z,100.00
2019-03-19T00:10:20.832Z,100.00
2019-03-19T00:12:50.401Z,100.00
2019-03-19T00:15:19.979Z,100.00
2019-03-19T00:17:49.488Z,100.00
2019-03-19T00:20:19.048Z,100.00
2019-03-19T00:22:48.560Z,100.00
2019-03-19T00:25:29.061Z,100.00
2019-03-19T00:27:49.281Z,100.00
2019-03-19T00:30:19.422Z,100.00
2019-03-19T00:32:48.936Z,100.00
2019-03-19T00:35:18.526Z,100.00
2019-03-19T00:37:48.017Z,100.00
2019-03-19T00:40:17.771Z,100.00
2019-03-19T00:42:47.267Z,100.00
2019-03-19T00:45:16.924Z,100.00
2019-03-19T00:47:46.577Z,100.00
2019-03-19T00:50:16.870Z,100.00
2019-03-19T00:52:46.385Z,100.00
2019-03-19T00:55:16.035Z,100.00
2019-03-19T00:57:45.542Z,100.00
2019-03-19T01:00:21.121Z,100.00
2019-03-19T01:02:50.626Z,100.00
2019-03-19T01:05:20.121Z,100.00
2019-03-19T01:07:49.629Z,100.00
2019-03-19T01:10:19.251Z,100.00
2019-03-19T01:12:49.852Z,100.00
2019-03-19T01:15:19.435Z,100.00
2019-03-19T01:17:49.002Z,100.00
2019-03-19T01:20:18.608Z,100.00
2019-03-19T01:22:48.136Z,100.00
2019-03-19T01:25:18.808Z,100.00
2019-03-19T01:27:48.415Z,100.00
2019-03-19T01:30:18.461Z,100.00
2019-03-19T01:32:48.091Z,100.00
2019-03-19T01:35:17.681Z,100.00
2019-03-19T01:37:47.245Z,100.00
2019-03-19T01:40:16.831Z,100.00
2019-03-19T01:42:46.355Z,100.00
2019-03-19T01:45:15.907Z,100.00
2019-03-19T01:47:45.395Z,100.00
2019-03-19T01:50:16.122Z,100.00
2019-03-19T01:52:45.694Z,100.00
2019-03-19T01:55:16.100Z,100.00
2019-03-19T01:57:45.637Z,100.00
2019-03-19T02:00:19.482Z,100.00
2019-03-19T02:02:48.967Z,100.00
2019-03-19T02:05:18.534Z,100.00
2019-03-19T02:07:48.104Z,100.00
2019-03-19T02:10:17.699Z,100.00
2019-03-19T02:12:47.206Z,100.00
2019-03-19T02:15:18.608Z,100.00
2019-03-19T02:17:48.162Z,100.00
2019-03-19T02:20:18.879Z,100.00
2019-03-19T02:22:48.380Z,100.00
2019-03-19T02:25:17.864Z,100.00
2019-03-19T02:27:47.394Z,100.00
2019-03-19T02:30:17.748Z,100.00
2019-03-19T02:32:47.260Z,100.00
2019-03-19T02:35:16.838Z,100.00
2019-03-19T02:37:46.348Z,100.00
2019-03-19T02:40:18.635Z,100.00
2019-03-19T02:42:48.181Z,100.00
2019-03-19T02:45:18.231Z,100.00
2019-03-19T02:47:47.770Z,100.00
2019-03-19T02:50:18.361Z,100.00
2019-03-19T02:52:47.922Z,100.00
2019-03-19T02:55:17.438Z,100.00
2019-03-19T02:57:47.013Z,100.00
2019-03-19T03:00:19.831Z,100.00
2019-03-19T03:02:49.350Z,100.00
2019-03-19T03:05:21.446Z,100.00
2019-03-19T03:07:51.103Z,100.00
2019-03-19T03:10:20.637Z,100.00
2019-03-19T03:12:50.136Z,100.00
2019-03-19T03:15:19.721Z,100.00
2019-03-19T03:17:49.239Z,100.00
2019-03-19T03:20:18.800Z,100.00
2019-03-19T03:22:48.374Z,100.00
2019-03-19T03:25:18.717Z,100.00
2019-03-19T03:27:48.384Z,100.00
2019-03-19T03:30:22.986Z,100.00
2019-03-19T03:32:52.551Z,100.00
2019-03-19T03:35:22.194Z,100.00
2019-03-19T03:37:51.818Z,100.00
2019-03-19T03:40:21.561Z,100.00
2019-03-19T03:42:51.168Z,100.00
2019-03-19T03:45:21.411Z,100.00
2019-03-19T03:47:50.897Z,100.00
2019-03-19T03:50:20.616Z,100.00
2019-03-19T03:52:50.312Z,100.00
2019-03-19T03:55:21.026Z,100.00
2019-03-19T03:57:50.589Z,100.00
2019-03-19T04:00:21.697Z,100.00
2019-03-19T04:03:10.580Z,100.00
2019-03-19T04:05:40.080Z,100.00
2019-03-19T04:08:09.554Z,100.00
2019-03-19T04:10:39.186Z,100.00
2019-03-19T04:13:08.692Z,100.00
2019-03-19T04:15:38.308Z,100.00
2019-03-19T04:18:07.871Z,100.00
2019-03-19T04:20:37.375Z,100.00
2019-03-19T04:23:07.130Z,100.00
2019-03-19T04:25:36.806Z,100.00
2019-03-19T04:28:06.379Z,100.00
2019-03-19T04:30:35.953Z,100.00
2019-03-19T04:33:05.810Z,100.00
2019-03-19T04:35:35.319Z,100.00
2019-03-19T04:38:04.888Z,100.00
2019-03-19T04:40:34.398Z,100.00
2019-03-19T04:43:03.981Z,100.00
2019-03-19T04:45:33.464Z,100.00
2019-03-19T04:48:03.678Z,100.00
2019-03-19T04:50:33.359Z,100.00
2019-03-19T04:53:02.882Z,100.00
2019-03-19T04:55:32.379Z,100.00
2019-03-19T04:58:01.954Z,100.00
2019-03-19T05:00:31.530Z,100.00
2019-03-19T05:03:01.032Z,100.00
2019-03-19T05:05:30.519Z,100.00
2019-03-19T05:08:00.035Z,100.00
2019-03-19T05:10:29.525Z,100.00
2019-03-19T05:13:00.794Z,100.00
2019-03-19T05:15:30.505Z,100.00
2019-03-19T05:18:00.033Z,100.00
2019-03-19T05:20:29.509Z,100.00
2019-03-19T05:22:59.019Z,100.00
2019-03-19T05:25:28.524Z,100.00
2019-03-19T05:27:58.280Z,100.00
2019-03-19T05:30:27.868Z,100.00
2019-03-19T05:32:57.365Z,100.00
2019-03-19T05:35:26.958Z,100.00
2019-03-19T05:37:56.453Z,100.00
2019-03-19T05:40:26.038Z,100.00
2019-03-19T05:42:55.521Z,100.00
2019-03-19T05:45:25.102Z,100.00
2019-03-19T05:47:54.663Z,100.00
2019-03-19T05:50:24.706Z,100.00
2019-03-19T05:52:54.325Z,100.00
2019-03-19T05:55:23.836Z,100.00
2019-03-19T05:57:53.352Z,100.00
2019-03-19T06:00:30.888Z,100.00
2019-03-19T06:03:00.492Z,100.00
2019-03-19T06:05:29.990Z,100.00
2019-03-19T06:07:59.593Z,100.00
2019-03-19T06:10:29.131Z,100.00
2019-03-19T06:13:01.218Z,100.00
2019-03-19T06:15:29.877Z,100.00
2019-03-19T06:17:59.373Z,100.00
2019-03-19T06:20:28.860Z,100.00
2019-03-19T06:22:58.372Z,100.00
2019-03-19T06:25:27.934Z,100.00
2019-03-19T06:28:00.792Z,100.00
2019-03-19T06:30:28.662Z,100.00
2019-03-19T06:32:58.183Z,100.00
2019-03-19T06:35:27.681Z,100.00
2019-03-19T06:37:57.242Z,100.00
2019-03-19T06:40:26.734Z,100.00
2019-03-19T06:42:56.219Z,100.00
2019-03-19T06:45:25.735Z,100.00
2019-03-19T06:47:55.212Z,100.00
2019-03-19T06:50:24.797Z,100.00
2019-03-19T06:52:54.546Z,100.00
2019-03-19T06:55:24.003Z,100.00
2019-03-19T06:57:53.883Z,100.00
2019-03-19T07:00:24.579Z,100.00
2019-03-19T07:02:54.230Z,100.00
2019-03-19T07:05:24.138Z,100.00
2019-03-19T07:07:53.792Z,100.00
2019-03-19T07:10:23.551Z,100.00
2019-03-19T07:12:53.178Z,100.00
2019-03-19T07:15:23.787Z,100.00
2019-03-19T07:17:53.341Z,100.00
2019-03-19T07:20:30.127Z,100.00
2019-03-19T07:22:59.659Z,100.00
2019-03-19T07:25:29.142Z,100.00
2019-03-19T07:28:00.195Z,100.00
2019-03-19T07:30:29.867Z,100.00
2019-03-19T07:32:59.430Z,100.00
2019-03-19T07:35:28.940Z,100.00
2019-03-19T07:37:58.466Z,100.00
2019-03-19T07:40:27.969Z,100.00
2019-03-19T07:42:57.470Z,100.00
2019-03-19T07:45:27.135Z,100.00
2019-03-19T07:47:56.692Z,100.00
2019-03-19T07:50:26.268Z,100.00
2019-03-19T07:52:55.762Z,100.00
2019-03-19T07:55:25.266Z,100.00
2019-03-19T07:57:54.865Z,100.00
2019-03-19T08:00:24.639Z,100.00
2019-03-19T08:02:54.225Z,100.00
2019-03-19T08:05:32.548Z,100.00
2019-03-19T08:07:55.014Z,88.33
2019-03-19T08:10:24.572Z,90.29
2019-03-19T08:12:54.048Z,89.88
2019-03-19T08:15:23.736Z,82.17
2019-03-19T08:17:53.222Z,74.05
2019-03-19T08:20:22.798Z,67.67
2019-03-19T08:22:52.294Z,72.52
2019-03-19T08:25:21.891Z,68.16
2019-03-19T08:27:51.418Z,64.64
2019-03-19T08:30:24.600Z,61.26
2019-03-19T08:32:53.716Z,63.29
2019-03-19T08:35:23.292Z,57.11
2019-03-19T08:37:52.799Z,55.47
2019-03-19T08:40:22.721Z,53.71
2019-03-19T08:42:52.208Z,53.57
2019-03-19T08:45:26.784Z,55.90
2019-03-19T08:47:56.291Z,54.42
2019-03-19T08:50:25.993Z,53.18
2019-03-19T08:52:55.806Z,47.34
2019-03-19T08:55:25.459Z,50.20
2019-03-19T08:57:54.947Z,50.97
2019-03-19T09:00:26.823Z,48.93
2019-03-19T09:02:56.319Z,47.21
2019-03-19T09:05:25.839Z,49.00
2019-03-19T09:07:55.321Z,48.59
2019-03-19T09:10:24.802Z,46.62
2019-03-19T09:12:54.332Z,46.41
2019-03-19T09:15:26.519Z,46.43
2019-03-19T09:17:56.003Z,43.10
2019-03-19T09:20:25.518Z,44.10
2019-03-19T09:22:55.097Z,45.45
2019-03-19T09:25:24.662Z,44.06
2019-03-19T09:27:54.176Z,44.92
2019-03-19T09:30:25.071Z,43.82
2019-03-19T09:32:54.626Z,42.01
2019-03-19T09:35:26.126Z,42.51
2019-03-19T09:37:58.895Z,41.64
2019-03-19T09:40:26.613Z,42.17
2019-03-19T09:42:56.201Z,41.14
2019-03-19T09:45:25.836Z,43.98
2019-03-19T09:47:55.390Z,43.23
2019-03-19T09:50:26.917Z,43.90
2019-03-19T09:52:56.417Z,41.81
2019-03-19T09:55:25.957Z,43.49
2019-03-19T09:57:55.489Z,39.83
2019-03-19T10:00:25.348Z,42.40
2019-03-19T10:02:54.901Z,45.09
2019-03-19T10:05:24.408Z,43.90
2019-03-19T10:07:55.702Z,45.28
2019-03-19T10:10:25.834Z,42.25
2019-03-19T10:12:55.379Z,40.61
2019-03-19T10:15:25.165Z,38.35
2019-03-19T10:17:54.699Z,38.57
2019-03-19T10:20:25.901Z,40.54
2019-03-19T10:22:55.476Z,38.92
2019-03-19T10:25:24.968Z,34.34
2019-03-19T10:27:54.618Z,37.74
2019-03-19T10:30:25.208Z,37.09
2019-03-19T10:32:54.780Z,34.00
2019-03-19T10:35:24.281Z,37.67
2019-03-19T10:37:53.876Z,40.41
2019-03-19T10:40:23.843Z,41.02
2019-03-19T10:42:53.396Z,34.24
2019-03-19T10:45:24.508Z,39.66
2019-03-19T10:47:54.115Z,42.44
2019-03-19T10:50:26.210Z,39.56
2019-03-19T10:52:55.845Z,38.38
2019-03-19T10:55:25.350Z,40.02
2019-03-19T10:57:54.935Z,40.34
2019-03-19T11:00:25.553Z,37.60
2019-03-19T11:02:55.294Z,36.85
2019-03-19T11:05:25.805Z,36.24
2019-03-19T11:07:55.457Z,37.88
2019-03-19T11:10:25.192Z,37.01
2019-03-19T11:12:54.640Z,38.49
2019-03-19T11:15:31.388Z,41.73
2019-03-19T11:18:00.023Z,38.46
2019-03-19T11:20:29.629Z,42.27
2019-03-19T11:22:59.179Z,42.13
2019-03-19T11:25:33.233Z,37.27
2019-03-19T11:28:02.748Z,39.76
2019-03-19T11:30:32.949Z,38.19
2019-03-19T11:33:02.586Z,36.96
2019-03-19T11:35:32.166Z,36.92
2019-03-19T11:38:01.649Z,41.46
2019-03-19T11:40:31.159Z,40.20
2019-03-19T11:43:02.189Z,44.93
2019-03-19T11:45:31.821Z,39.90
2019-03-19T11:48:01.320Z,44.62
2019-03-19T11:50:34.001Z,43.58
2019-03-19T11:53:04.924Z,42.53
2019-03-19T11:55:34.444Z,39.41
2019-03-19T11:58:04.051Z,42.54
2019-03-19T12:00:47.400Z,44.17
2019-03-19T12:03:16.904Z,40.86
2019-03-19T12:05:46.470Z,41.27
2019-03-19T12:08:15.965Z,40.95
2019-03-19T12:10:45.549Z,39.45
2019-03-19T12:13:15.051Z,41.40
2019-03-19T12:15:44.560Z,42.39
2019-03-19T12:18:14.069Z,41.27
2019-03-19T12:20:43.556Z,39.79
2019-03-19T12:23:13.066Z,39.68
2019-03-19T12:25:42.566Z,40.76
2019-03-19T12:28:12.109Z,41.01
2019-03-19T12:30:41.593Z,39.96
2019-03-19T12:33:11.106Z,39.81
2019-03-19T12:35:40.674Z,40.51
2019-03-19T12:38:10.233Z,39.85
2019-03-19T12:40:39.758Z,39.92
2019-03-19T12:43:09.271Z,42.55
2019-03-19T12:45:38.787Z,40.67
2019-03-19T12:48:08.261Z,39.94
2019-03-19T12:50:37.770Z,38.85
2019-03-19T12:53:07.279Z,41.63
2019-03-19T12:55:36.776Z,43.50
2019-03-19T12:58:06.791Z,43.97
2019-03-19T13:00:36.347Z,39.74
2019-03-19T13:03:06.261Z,42.02
2019-03-19T13:05:35.844Z,40.51
2019-03-19T13:08:05.516Z,40.42
2019-03-19T13:10:35.046Z,40.82
2019-03-19T13:13:05.003Z,43.47
2019-03-19T13:15:34.571Z,43.34
2019-03-19T13:18:04.202Z,43.20
2019-03-19T13:20:33.714Z,44.75
2019-03-19T13:23:03.309Z,42.32
2019-03-19T13:25:32.813Z,45.07
2019-03-19T13:28:02.331Z,42.13
2019-03-19T13:30:44.583Z,43.97
2019-03-19T13:33:06.336Z,42.69
2019-03-19T13:35:35.867Z,43.20
2019-03-19T13:38:05.656Z,44.30
2019-03-19T13:40:35.144Z,43.28
2019-03-19T13:43:04.822Z,42.94
2019-03-19T13:45:34.379Z,43.99
2019-03-19T13:48:03.932Z,42.75
2019-03-19T13:50:33.426Z,41.95
2019-03-19T13:53:02.991Z,41.74
2019-03-19T13:55:32.556Z,42.58
2019-03-19T13:58:02.073Z,41.63
2019-03-19T14:00:31.568Z,41.68
2019-03-19T14:03:01.074Z,43.71
2019-03-19T14:05:30.592Z,43.45
2019-03-19T14:08:00.091Z,42.94
2019-03-19T14:10:29.588Z,42.34
2019-03-19T14:12:59.866Z,44.06
2019-03-19T14:15:29.424Z,45.54
2019-03-19T14:17:59.019Z,47.84
2019-03-19T14:20:28.621Z,46.50
2019-03-19T14:22:58.108Z,46.14
2019-03-19T14:25:27.607Z,46.86
2019-03-19T14:27:57.108Z,46.36
2019-03-19T14:30:27.250Z,44.58
2019-03-19T14:32:56.816Z,44.30
2019-03-19T14:35:36.594Z,45.17
2019-03-19T14:37:57.566Z,47.85
2019-03-19T14:40:27.893Z,48.12
2019-03-19T14:43:01.034Z,50.72
2019-03-19T14:45:28.697Z,50.72
2019-03-19T14:47:58.187Z,50.46
2019-03-19T14:50:28.059Z,52.46
2019-03-19T14:52:57.646Z,52.25
2019-03-19T14:55:27.123Z,50.83
2019-03-19T14:57:56.648Z,51.27
2019-03-19T15:00:26.288Z,52.95
2019-03-19T15:02:55.799Z,53.36
2019-03-19T15:05:25.327Z,54.94
2019-03-19T15:07:54.941Z,54.43
2019-03-19T15:10:25.184Z,55.92
2019-03-19T15:12:54.785Z,55.15
2019-03-19T15:15:24.297Z,55.62
2019-03-19T15:17:53.811Z,55.34
2019-03-19T15:20:27.875Z,55.32
2019-03-19T15:22:57.462Z,54.75
2019-03-19T15:25:27.064Z,56.10
2019-03-19T15:27:56.582Z,55.75
2019-03-19T15:30:26.155Z,55.71
2019-03-19T15:32:55.662Z,56.80
2019-03-19T15:35:25.171Z,56.96
2019-03-19T15:37:54.659Z,57.60
2019-03-19T15:40:24.146Z,57.79
2019-03-19T15:42:53.697Z,58.54
2019-03-19T15:45:29.504Z,57.31
2019-03-19T15:47:59.182Z,59.62
2019-03-19T15:50:28.812Z,59.44
2019-03-19T15:52:58.316Z,58.87
2019-03-19T15:55:27.827Z,61.40
2019-03-19T15:57:57.336Z,60.90
2019-03-19T16:00:26.978Z,60.75
2019-03-19T16:02:56.617Z,60.67
2019-03-19T16:05:26.203Z,62.34
2019-03-19T16:07:55.685Z,62.26
2019-03-19T16:10:25.253Z,62.32
2019-03-19T16:12:54.863Z,62.73
2019-03-19T16:15:24.462Z,63.84
2019-03-19T16:17:54.029Z,64.10
2019-03-19T16:20:24.206Z,63.55
2019-03-19T16:22:53.689Z,62.48
2019-03-19T16:25:23.244Z,63.19
2019-03-19T16:27:52.827Z,64.47
2019-03-19T16:30:43.297Z,64.92
2019-03-19T16:33:12.803Z,64.54
2019-03-19T16:35:43.949Z,64.26
2019-03-19T16:38:13.509Z,65.27
2019-03-19T16:40:43.015Z,66.40
2019-03-19T16:43:12.636Z,66.75
2019-03-19T16:45:42.191Z,67.17
2019-03-19T16:48:11.668Z,67.75
2019-03-19T16:50:41.253Z,67.92
2019-03-19T16:53:10.802Z,68.36
2019-03-19T16:55:40.275Z,68.36
2019-03-19T16:58:09.926Z,68.20
2019-03-19T17:00:39.561Z,69.58
2019-03-19T17:03:09.117Z,69.79
2019-03-19T17:05:38.691Z,70.37
2019-03-19T17:08:08.199Z,70.99
2019-03-19T17:10:37.709Z,71.73
2019-03-19T17:13:07.214Z,71.59
2019-03-19T17:15:36.814Z,72.86
2019-03-19T17:18:06.510Z,73.77
2019-03-19T17:20:35.988Z,74.01
2019-03-19T17:23:05.555Z,74.70
2019-03-19T17:25:35.199Z,76.68
2019-03-19T17:28:04.780Z,77.50
2019-03-19T17:30:38.750Z,80.04
2019-03-19T17:33:08.301Z,81.05
2019-03-19T17:35:37.815Z,83.92
2019-03-19T17:38:08.934Z,84.70
2019-03-19T17:40:41.502Z,86.73
2019-03-19T17:43:10.206Z,87.91
2019-03-19T17:45:39.786Z,88.36
2019-03-19T17:48:16.017Z,90.07
2019-03-19T17:50:44.342Z,91.26
2019-03-19T17:53:13.851Z,91.26
2019-03-19T17:55:43.374Z,92.29
2019-03-19T17:58:12.861Z,92.99
2019-03-19T18:00:44.049Z,93.72
2019-03-19T18:03:13.579Z,94.02
2019-03-19T18:05:43.133Z,94.58
2019-03-19T18:08:12.618Z,95.80
2019-03-19T18:10:42.142Z,96.54
2019-03-19T18:13:11.638Z,97.49
2019-03-19T18:15:41.261Z,97.99
2019-03-19T18:18:10.752Z,97.88
2019-03-19T18:20:40.326Z,98.23
2019-03-19T18:23:09.879Z,97.88
2019-03-19T18:25:39.453Z,98.21
2019-03-19T18:28:08.939Z,99.36
2019-03-19T18:30:38.491Z,99.95
2019-03-19T18:33:08.100Z,99.86
2019-03-19T18:35:37.641Z,100.00
2019-03-19T18:38:07.380Z,100.00
2019-03-19T18:40:36.883Z,100.00
2019-03-19T18:43:06.452Z,100.00
2019-03-19T18:45:35.933Z,100.00
2019-03-19T18:48:05.857Z,100.00
2019-03-19T18:50:35.429Z,100.00
2019-03-19T18:53:05.793Z,100.00
2019-03-19T18:55:35.313Z,100.00
2019-03-19T18:58:04.966Z,100.00
2019-03-19T19:00:34.479Z,100.00
2019-03-19T19:03:04.108Z,100.00
2019-03-19T19:05:33.655Z,100.00
2019-03-19T19:08:03.242Z,100.00
2019-03-19T19:10:32.758Z,100.00
2019-03-19T19:13:02.294Z,100.00
2019-03-19T19:15:31.790Z,100.00
2019-03-19T19:18:01.402Z,100.00
2019-03-19T19:20:30.960Z,100.00
2019-03-19T19:23:02.778Z,100.00
2019-03-19T19:25:31.731Z,100.00
2019-03-19T19:28:02.860Z,100.00
2019-03-19T19:30:33.359Z,100.00
2019-03-19T19:33:02.979Z,100.00
2019-03-19T19:35:32.584Z,100.00
2019-03-19T19:38:03.370Z,100.00
2019-03-19T19:40:33.418Z,100.00
2019-03-19T19:43:03.019Z,100.00
2019-03-19T19:45:32.509Z,100.00
2019-03-19T19:48:02.028Z,100.00
2019-03-19T19:50:31.521Z,100.00
2019-03-19T19:53:02.903Z,100.00
2019-03-19T19:55:32.397Z,100.00
2019-03-19T19:58:02.021Z,100.00
2019-03-19T20:00:31.523Z,100.00
2019-03-19T20:03:11.551Z,100.00
2019-03-19T20:05:34.234Z,100.00
2019-03-19T20:08:03.796Z,100.00
2019-03-19T20:10:33.439Z,100.00
2019-03-19T20:13:03.999Z,100.00
2019-03-19T20:15:33.594Z,100.00
2019-03-19T20:18:03.109Z,100.00
2019-03-19T20:20:36.251Z,100.00
2019-03-19T20:23:05.948Z,100.00
2019-03-19T20:25:35.526Z,100.00
2019-03-19T20:28:05.982Z,100.00
2019-03-19T20:30:35.629Z,100.00
2019-03-19T20:33:05.536Z,100.00
2019-03-19T20:35:35.014Z,100.00
2019-03-19T20:38:04.688Z,100.00
2019-03-19T20:40:34.229Z,100.00
2019-03-19T20:43:03.703Z,100.00
2019-03-19T20:45:33.226Z,100.00
2019-03-19T20:48:02.766Z,100.00
2019-03-19T20:50:37.700Z,100.00
2019-03-19T20:53:07.295Z,100.00
2019-03-19T20:55:37.362Z,100.00
2019-03-19T20:58:07.685Z,100.00
2019-03-19T21:00:37.230Z,100.00
2019-03-19T21:03:06.770Z,100.00
2019-03-19T21:05:36.286Z,100.00
2019-03-19T21:08:05.960Z,100.00
2019-03-19T21:10:35.462Z,100.00
2019-03-19T21:13:05.039Z,100.00
2019-03-19T21:15:34.524Z,100.00
2019-03-19T21:18:04.242Z,100.00
2019-03-19T21:20:33.817Z,100.00
2019-03-19T21:23:03.320Z,100.00
2019-03-19T21:25:32.829Z,100.00
2019-03-19T21:28:13.253Z,100.00
2019-03-19T21:30:33.652Z,100.00
2019-03-19T21:33:03.191Z,100.00
2019-03-19T21:35:32.687Z,100.00
2019-03-19T21:38:02.363Z,100.00
2019-03-19T21:40:31.881Z,100.00
2019-03-19T21:43:03.098Z,100.00
2019-03-19T21:45:32.600Z,100.00
2019-03-19T21:48:02.119Z,100.00
2019-03-19T21:50:31.600Z,100.00
2019-03-19T21:53:01.118Z,100.00
2019-03-19T21:55:30.711Z,100.00
2019-03-19T21:58:00.306Z,100.00
2019-03-19T22:00:29.881Z,100.00
2019-03-19T22:02:59.382Z,100.00
2019-03-19T22:05:28.888Z,100.00
2019-03-19T22:07:58.371Z,100.00
2019-03-19T22:10:27.868Z,100.00
2019-03-19T22:12:57.381Z,100.00
2019-03-19T22:15:27.194Z,100.00
2019-03-19T22:17:56.738Z,100.00
2019-03-19T22:20:26.254Z,100.00
2019-03-19T22:22:55.859Z,100.00
2019-03-19T22:25:25.348Z,100.00
2019-03-19T22:27:54.847Z,100.00
2019-03-19T22:30:24.485Z,100.00
2019-03-19T22:32:54.015Z,100.00
2019-03-19T22:35:23.593Z,100.00
2019-03-19T22:37:53.091Z,100.00
2019-03-19T22:40:22.719Z,100.00
2019-03-19T22:42:52.215Z,100.00
2019-03-19T22:45:21.775Z,100.00
2019-03-19T22:47:51.278Z,100.00
2019-03-19T22:50:20.855Z,100.00
2019-03-19T22:52:50.352Z,100.00
2019-03-19T22:55:28.722Z,100.00
2019-03-19T22:57:51.223Z,100.00
2019-03-19T23:00:38.103Z,100.00
2019-03-19T23:03:08.497Z,100.00
2019-03-19T23:05:38.285Z,100.00
2019-03-19T23:08:07.904Z,100.00
2019-03-19T23:10:37.459Z,100.00
2019-03-19T23:13:07.018Z,100.00
2019-03-19T23:15:36.647Z,100.00
2019-03-19T23:18:06.181Z,100.00
2019-03-19T23:20:36.025Z,100.00
2019-03-19T23:23:06.051Z,100.00
2019-03-19T23:25:35.597Z,100.00
2019-03-19T23:28:05.552Z,100.00
2019-03-19T23:30:35.025Z,100.00
2019-03-19T23:33:05.952Z,100.00
2019-03-19T23:35:35.509Z,100.00
2019-03-19T23:38:05.176Z,100.00
2019-03-19T23:40:34.675Z,100.00
2019-03-19T23:43:04.325Z,100.00
2019-03-19T23:45:33.838Z,100.00
2019-03-19T23:48:03.316Z,100.00
2019-03-19T23:50:32.901Z,100.00
2019-03-19T23:53:02.374Z,100.00
2019-03-19T23:55:31.899Z,100.00
2019-03-19T23:58:01.379Z,100.00
